BWA418 TAPA-MKJP
Flight info
| Callsign | BWA418 |
|---|---|
| Flight time | 2h 9m |
| Altitude | 38000 |
| Route | ANU UG633 GABAR L349 SATOE UL349 LORBI DCT DAMUX DCT OMLOD DCT ANVIN DCT URTOP DCT ALNOX |
| Aircraft | B38M/M-SDE1FGHILORVWXY/HB1 |
Departure
| Time | 2026-05-07 15:59 |
|---|---|
| Airport | V. C. Bird International Airport (TAPA) |
Arrival
| Time | 2026-05-07 18:08 |
|---|---|
| Airport | Norman Manley International Airport (MKJP) |
| Time | Latitude | Longitude | Altitude | Speed | Heading |
|---|---|---|---|---|---|
| 2026-05-07 15:41 | 17.14149 | -61.78963 | 48 ft | 0 kts | 324° |
| 2026-05-07 15:48 | 17.14146 | -61.78961 | 48 ft | 2 kts | 324° |
| 2026-05-07 15:49 | 17.14137 | -61.78954 | 48 ft | 2 kts | 324° |
| 2026-05-07 15:49 | 17.14125 | -61.78945 | 46 ft | 2 kts | 325° |
| 2026-05-07 15:49 | 17.14111 | -61.78935 | 45 ft | 2 kts | 325° |
| 2026-05-07 15:49 | 17.14098 | -61.78926 | 47 ft | 2 kts | 325° |
| 2026-05-07 15:50 | 17.14087 | -61.78915 | 49 ft | 2 kts | 294° |
| 2026-05-07 15:50 | 17.14085 | -61.78898 | 49 ft | 2 kts | 240° |
| 2026-05-07 15:50 | 17.14089 | -61.78892 | 49 ft | 0 kts | 237° |
| 2026-05-07 15:53 | 17.14086 | -61.78896 | 50 ft | 2 kts | 237° |
| 2026-05-07 15:53 | 17.14076 | -61.78913 | 49 ft | 4 kts | 237° |
| 2026-05-07 15:54 | 17.14054 | -61.78947 | 51 ft | 7 kts | 237° |
| 2026-05-07 15:54 | 17.14028 | -61.78995 | 51 ft | 8 kts | 242° |
| 2026-05-07 15:54 | 17.13998 | -61.79052 | 48 ft | 10 kts | 243° |
| 2026-05-07 15:54 | 17.13950 | -61.79115 | 52 ft | 12 kts | 220° |
| 2026-05-07 15:55 | 17.13866 | -61.79124 | 53 ft | 14 kts | 152° |
| 2026-05-07 15:55 | 17.13777 | -61.79107 | 53 ft | 14 kts | 208° |
| 2026-05-07 15:55 | 17.13716 | -61.79189 | 50 ft | 15 kts | 240° |
| 2026-05-07 15:55 | 17.13658 | -61.79292 | 56 ft | 17 kts | 239° |
| 2026-05-07 15:56 | 17.13589 | -61.79404 | 53 ft | 18 kts | 238° |
| 2026-05-07 15:56 | 17.13519 | -61.79522 | 57 ft | 20 kts | 237° |
| 2026-05-07 15:56 | 17.13441 | -61.79652 | 59 ft | 22 kts | 239° |
| 2026-05-07 15:56 | 17.13361 | -61.79790 | 59 ft | 23 kts | 237° |
| 2026-05-07 15:57 | 17.13272 | -61.79938 | 58 ft | 24 kts | 239° |
| 2026-05-07 15:57 | 17.13182 | -61.80089 | 58 ft | 25 kts | 238° |
| 2026-05-07 15:57 | 17.13091 | -61.80242 | 60 ft | 25 kts | 238° |
| 2026-05-07 15:57 | 17.13004 | -61.80391 | 61 ft | 23 kts | 237° |
| 2026-05-07 15:58 | 17.12892 | -61.80499 | 65 ft | 21 kts | 220° |
| 2026-05-07 15:58 | 17.12883 | -61.80573 | 69 ft | 2 kts | 355° |
| 2026-05-07 15:58 | 17.12903 | -61.80557 | 74 ft | 5 kts | 51° |
| 2026-05-07 15:58 | 17.12930 | -61.80515 | 71 ft | 9 kts | 57° |
| 2026-05-07 15:59 | 17.12985 | -61.80423 | 64 ft | 30 kts | 58° |
| 2026-05-07 15:59 | 17.13244 | -61.79986 | 62 ft | 119 kts | 58° |
| 2026-05-07 15:59 | 17.13813 | -61.79036 | 209 ft | 179 kts | 58° |
| 2026-05-07 15:59 | 17.14571 | -61.77900 | 810 ft | 199 kts | 56° |
| 2026-05-07 16:00 | 17.15472 | -61.76815 | 1438 ft | 195 kts | 41° |
| 2026-05-07 16:00 | 17.16692 | -61.76226 | 2049 ft | 194 kts | 14° |
| 2026-05-07 16:00 | 17.17995 | -61.76338 | 2646 ft | 184 kts | 345° |
| 2026-05-07 16:00 | 17.19071 | -61.77002 | 3211 ft | 181 kts | 319° |
| 2026-05-07 16:01 | 17.19770 | -61.78166 | 3741 ft | 202 kts | 287° |
| 2026-05-07 16:01 | 17.19895 | -61.79691 | 4342 ft | 223 kts | 268° |
| 2026-05-07 16:01 | 17.19781 | -61.81368 | 4970 ft | 243 kts | 265° |
| 2026-05-07 16:01 | 17.19614 | -61.83205 | 5601 ft | 262 kts | 265° |
| 2026-05-07 16:02 | 17.19425 | -61.85185 | 6258 ft | 281 kts | 265° |
| 2026-05-07 16:02 | 17.19224 | -61.87271 | 6880 ft | 299 kts | 265° |
| 2026-05-07 16:02 | 17.19009 | -61.89508 | 7498 ft | 315 kts | 265° |
| 2026-05-07 16:02 | 17.18784 | -61.91821 | 8118 ft | 330 kts | 265° |
| 2026-05-07 16:03 | 17.18542 | -61.94279 | 8751 ft | 343 kts | 265° |
| 2026-05-07 16:03 | 17.18290 | -61.96773 | 9382 ft | 355 kts | 264° |
| 2026-05-07 16:03 | 17.18029 | -61.99390 | 10018 ft | 364 kts | 264° |
| 2026-05-07 16:03 | 17.17769 | -62.02055 | 10614 ft | 368 kts | 265° |
| 2026-05-07 16:04 | 17.17507 | -62.04712 | 11201 ft | 371 kts | 265° |
| 2026-05-07 16:04 | 17.17232 | -62.07413 | 11802 ft | 374 kts | 265° |
| 2026-05-07 16:04 | 17.16978 | -62.10117 | 12410 ft | 377 kts | 268° |
| 2026-05-07 16:04 | 17.16909 | -62.12879 | 13034 ft | 379 kts | 273° |
| 2026-05-07 16:05 | 17.17195 | -62.15604 | 13660 ft | 382 kts | 280° |
| 2026-05-07 16:05 | 17.17664 | -62.18360 | 14257 ft | 384 kts | 282° |
| 2026-05-07 16:05 | 17.18100 | -62.21109 | 14839 ft | 388 kts | 279° |
| 2026-05-07 16:05 | 17.18396 | -62.23933 | 15421 ft | 390 kts | 277° |
| 2026-05-07 16:06 | 17.18670 | -62.26749 | 16013 ft | 393 kts | 278° |
| 2026-05-07 16:06 | 17.19019 | -62.29614 | 16632 ft | 395 kts | 279° |
| 2026-05-07 16:06 | 17.19389 | -62.32465 | 17255 ft | 398 kts | 279° |
| 2026-05-07 16:06 | 17.19729 | -62.35331 | 17905 ft | 401 kts | 278° |
| 2026-05-07 16:07 | 17.20058 | -62.38246 | 18519 ft | 404 kts | 278° |
| 2026-05-07 16:07 | 17.20400 | -62.41174 | 19084 ft | 406 kts | 278° |
| 2026-05-07 16:07 | 17.20834 | -62.44100 | 19657 ft | 406 kts | 285° |
| 2026-05-07 16:07 | 17.21626 | -62.46916 | 20239 ft | 407 kts | 288° |
| 2026-05-07 16:08 | 17.22451 | -62.49746 | 20834 ft | 409 kts | 288° |
| 2026-05-07 16:08 | 17.23274 | -62.52607 | 21432 ft | 410 kts | 287° |
| 2026-05-07 16:08 | 17.24085 | -62.55447 | 22053 ft | 411 kts | 287° |
| 2026-05-07 16:08 | 17.24914 | -62.58340 | 22697 ft | 412 kts | 287° |
| 2026-05-07 16:09 | 17.25735 | -62.61191 | 23342 ft | 412 kts | 287° |
| 2026-05-07 16:09 | 17.26565 | -62.64081 | 23936 ft | 412 kts | 287° |
| 2026-05-07 16:09 | 17.27382 | -62.66938 | 24482 ft | 413 kts | 287° |
| 2026-05-07 16:09 | 17.28211 | -62.69834 | 25046 ft | 413 kts | 287° |
| 2026-05-07 16:10 | 17.29029 | -62.72690 | 25614 ft | 413 kts | 287° |
| 2026-05-07 16:10 | 17.29794 | -62.75586 | 26196 ft | 413 kts | 284° |
| 2026-05-07 16:10 | 17.30462 | -62.78551 | 26500 ft | 421 kts | 284° |
| 2026-05-07 16:10 | 17.31136 | -62.81515 | 26768 ft | 426 kts | 284° |
| 2026-05-07 16:11 | 17.31832 | -62.84563 | 27067 ft | 433 kts | 284° |
| 2026-05-07 16:11 | 17.32540 | -62.87672 | 27368 ft | 439 kts | 284° |
| 2026-05-07 16:11 | 17.33242 | -62.90774 | 27676 ft | 445 kts | 284° |
| 2026-05-07 16:11 | 17.33964 | -62.93963 | 27978 ft | 451 kts | 284° |
| 2026-05-07 16:12 | 17.34688 | -62.97152 | 28285 ft | 456 kts | 284° |
| 2026-05-07 16:12 | 17.35335 | -63.00453 | 28603 ft | 461 kts | 277° |
| 2026-05-07 16:12 | 17.35560 | -63.03788 | 28922 ft | 466 kts | 274° |
| 2026-05-07 16:12 | 17.35743 | -63.07184 | 29242 ft | 470 kts | 274° |
| 2026-05-07 16:13 | 17.35936 | -63.10626 | 29563 ft | 474 kts | 274° |
| 2026-05-07 16:13 | 17.36138 | -63.14074 | 29888 ft | 475 kts | 275° |
| 2026-05-07 16:13 | 17.36338 | -63.17545 | 30206 ft | 477 kts | 275° |
| 2026-05-07 16:13 | 17.36529 | -63.20975 | 30485 ft | 476 kts | 275° |
| 2026-05-07 16:14 | 17.36721 | -63.24429 | 30746 ft | 475 kts | 275° |
| 2026-05-07 16:14 | 17.36917 | -63.27896 | 31023 ft | 474 kts | 275° |
| 2026-05-07 16:14 | 17.37111 | -63.31312 | 31296 ft | 473 kts | 275° |
| 2026-05-07 16:14 | 17.37302 | -63.34749 | 31579 ft | 471 kts | 275° |
| 2026-05-07 16:15 | 17.37493 | -63.38187 | 31867 ft | 470 kts | 275° |
| 2026-05-07 16:15 | 17.37680 | -63.41570 | 32153 ft | 469 kts | 275° |
| 2026-05-07 16:15 | 17.37871 | -63.44996 | 32440 ft | 467 kts | 275° |
| 2026-05-07 16:15 | 17.38057 | -63.48363 | 32733 ft | 467 kts | 275° |
| 2026-05-07 16:16 | 17.38241 | -63.51719 | 33029 ft | 465 kts | 275° |
| 2026-05-07 16:16 | 17.38428 | -63.55126 | 33337 ft | 464 kts | 275° |
| 2026-05-07 16:16 | 17.38611 | -63.58478 | 33642 ft | 463 kts | 275° |
| 2026-05-07 16:16 | 17.38794 | -63.61838 | 33948 ft | 461 kts | 276° |
| 2026-05-07 16:17 | 17.38976 | -63.65188 | 34238 ft | 460 kts | 276° |
| 2026-05-07 16:17 | 17.39156 | -63.68506 | 34495 ft | 459 kts | 275° |
| 2026-05-07 16:17 | 17.39338 | -63.71865 | 34756 ft | 459 kts | 275° |
| 2026-05-07 16:17 | 17.39518 | -63.75214 | 35042 ft | 459 kts | 276° |
| 2026-05-07 16:18 | 17.39696 | -63.78524 | 35308 ft | 459 kts | 276° |
| 2026-05-07 16:18 | 17.40053 | -63.85217 | 35370 ft | 458 kts | 276° |
| 2026-05-07 16:19 | 17.40407 | -63.91873 | 35369 ft | 458 kts | 276° |
| 2026-05-07 16:19 | 17.40756 | -63.98489 | 35370 ft | 458 kts | 276° |
| 2026-05-07 16:20 | 17.41105 | -64.05152 | 35366 ft | 458 kts | 276° |
| 2026-05-07 16:20 | 17.41457 | -64.11889 | 35371 ft | 461 kts | 276° |
| 2026-05-07 16:21 | 17.41801 | -64.18566 | 35360 ft | 461 kts | 276° |
| 2026-05-07 16:21 | 17.42146 | -64.25259 | 35217 ft | 461 kts | 276° |
| 2026-05-07 16:22 | 17.42488 | -64.31964 | 35079 ft | 461 kts | 276° |
| 2026-05-07 16:22 | 17.42828 | -64.38655 | 35079 ft | 463 kts | 276° |
| 2026-05-07 16:23 | 17.43167 | -64.45384 | 35081 ft | 463 kts | 276° |
| 2026-05-07 16:23 | 17.43506 | -64.52144 | 35081 ft | 463 kts | 276° |
| 2026-05-07 16:24 | 17.43840 | -64.58868 | 35081 ft | 463 kts | 276° |
| 2026-05-07 16:24 | 17.44172 | -64.65586 | 35081 ft | 463 kts | 276° |
| 2026-05-07 16:25 | 17.44502 | -64.72320 | 35081 ft | 463 kts | 276° |
| 2026-05-07 16:25 | 17.44833 | -64.79110 | 35081 ft | 463 kts | 276° |
| 2026-05-07 16:26 | 17.45158 | -64.85833 | 35081 ft | 464 kts | 276° |
| 2026-05-07 16:26 | 17.45481 | -64.92546 | 35079 ft | 464 kts | 276° |
| 2026-05-07 16:27 | 17.45802 | -64.99280 | 35077 ft | 465 kts | 276° |
| 2026-05-07 16:27 | 17.46125 | -65.06104 | 35077 ft | 466 kts | 276° |
| 2026-05-07 16:28 | 17.46445 | -65.12903 | 35079 ft | 466 kts | 276° |
| 2026-05-07 16:28 | 17.46762 | -65.19675 | 35065 ft | 466 kts | 276° |
| 2026-05-07 16:29 | 17.47074 | -65.26429 | 35067 ft | 465 kts | 276° |
| 2026-05-07 16:29 | 17.47386 | -65.33191 | 35071 ft | 467 kts | 276° |
| 2026-05-07 16:30 | 17.47695 | -65.39973 | 35072 ft | 467 kts | 276° |
| 2026-05-07 16:30 | 17.48003 | -65.46765 | 35072 ft | 467 kts | 276° |
| 2026-05-07 16:31 | 17.48310 | -65.53587 | 35072 ft | 467 kts | 276° |
| 2026-05-07 16:31 | 17.48613 | -65.60373 | 35072 ft | 467 kts | 276° |
| 2026-05-07 16:32 | 17.48915 | -65.67181 | 35065 ft | 469 kts | 276° |
| 2026-05-07 16:32 | 17.49214 | -65.74009 | 35065 ft | 469 kts | 276° |
| 2026-05-07 16:33 | 17.49633 | -65.80830 | 35069 ft | 468 kts | 279° |
| 2026-05-07 16:33 | 17.50195 | -65.87619 | 35069 ft | 468 kts | 278° |
| 2026-05-07 16:34 | 17.50756 | -65.94403 | 35064 ft | 469 kts | 279° |
| 2026-05-07 16:34 | 17.51226 | -66.00077 | 35068 ft | 470 kts | 279° |
| 2026-05-07 16:35 | 17.51784 | -66.06900 | 35065 ft | 470 kts | 279° |
| 2026-05-07 16:35 | 17.52344 | -66.13721 | 35065 ft | 470 kts | 279° |
| 2026-05-07 16:36 | 17.52901 | -66.20578 | 35068 ft | 470 kts | 279° |
| 2026-05-07 16:36 | 17.53455 | -66.27399 | 35072 ft | 472 kts | 279° |
| 2026-05-07 16:37 | 17.54008 | -66.34244 | 35073 ft | 473 kts | 279° |
| 2026-05-07 16:37 | 17.54562 | -66.41137 | 35070 ft | 473 kts | 279° |
| 2026-05-07 16:38 | 17.55108 | -66.47953 | 35069 ft | 473 kts | 279° |
| 2026-05-07 16:38 | 17.55657 | -66.54838 | 35069 ft | 473 kts | 279° |
| 2026-05-07 16:39 | 17.56203 | -66.61712 | 35066 ft | 476 kts | 279° |
| 2026-05-07 16:39 | 17.56748 | -66.68616 | 35066 ft | 475 kts | 279° |
| 2026-05-07 16:40 | 17.57293 | -66.75538 | 35063 ft | 476 kts | 279° |
| 2026-05-07 16:40 | 17.57831 | -66.82412 | 35063 ft | 476 kts | 279° |
| 2026-05-07 16:41 | 17.58373 | -66.89359 | 35063 ft | 476 kts | 279° |
| 2026-05-07 16:41 | 17.58912 | -66.96307 | 35063 ft | 477 kts | 279° |
| 2026-05-07 16:42 | 17.59443 | -67.03184 | 35063 ft | 477 kts | 279° |
| 2026-05-07 16:42 | 17.59979 | -67.10158 | 35063 ft | 478 kts | 279° |
| 2026-05-07 16:43 | 17.60510 | -67.17084 | 35063 ft | 478 kts | 279° |
| 2026-05-07 16:43 | 17.61040 | -67.24047 | 35064 ft | 478 kts | 280° |
| 2026-05-07 16:44 | 17.61567 | -67.30989 | 35063 ft | 479 kts | 280° |
| 2026-05-07 16:44 | 17.62090 | -67.37920 | 35063 ft | 479 kts | 280° |
| 2026-05-07 16:45 | 17.62613 | -67.44879 | 35063 ft | 479 kts | 280° |
| 2026-05-07 16:45 | 17.63132 | -67.51825 | 35063 ft | 479 kts | 280° |
| 2026-05-07 16:46 | 17.63654 | -67.58832 | 35072 ft | 480 kts | 280° |
| 2026-05-07 16:46 | 17.64168 | -67.65772 | 35072 ft | 479 kts | 280° |
| 2026-05-07 16:47 | 17.64683 | -67.72760 | 35061 ft | 479 kts | 280° |
| 2026-05-07 16:47 | 17.65194 | -67.79720 | 35065 ft | 480 kts | 280° |
| 2026-05-07 16:48 | 17.65704 | -67.86711 | 35060 ft | 480 kts | 280° |
| 2026-05-07 16:48 | 17.66209 | -67.93669 | 35061 ft | 480 kts | 280° |
| 2026-05-07 16:49 | 17.66714 | -68.00649 | 35062 ft | 480 kts | 280° |
| 2026-05-07 16:49 | 17.67302 | -68.07591 | 35068 ft | 479 kts | 281° |
| 2026-05-07 16:50 | 17.67888 | -68.14587 | 35069 ft | 480 kts | 281° |
| 2026-05-07 16:50 | 17.68459 | -68.21546 | 35065 ft | 480 kts | 281° |
| 2026-05-07 16:51 | 17.69040 | -68.28509 | 35071 ft | 481 kts | 281° |
| 2026-05-07 16:51 | 17.69610 | -68.35496 | 35063 ft | 481 kts | 281° |
| 2026-05-07 16:52 | 17.70186 | -68.42493 | 35055 ft | 481 kts | 281° |
| 2026-05-07 16:52 | 17.70752 | -68.49462 | 35055 ft | 481 kts | 281° |
| 2026-05-07 16:53 | 17.71324 | -68.56493 | 35052 ft | 481 kts | 281° |
| 2026-05-07 16:53 | 17.71887 | -68.63478 | 35053 ft | 481 kts | 281° |
| 2026-05-07 16:54 | 17.72446 | -68.70420 | 35064 ft | 481 kts | 281° |
| 2026-05-07 16:54 | 17.73010 | -68.77449 | 35065 ft | 482 kts | 281° |
| 2026-05-07 16:55 | 17.73568 | -68.84438 | 35059 ft | 482 kts | 281° |
| 2026-05-07 16:55 | 17.74123 | -68.91426 | 35056 ft | 479 kts | 281° |
| 2026-05-07 16:56 | 17.74671 | -68.98337 | 35056 ft | 478 kts | 281° |
| 2026-05-07 16:56 | 17.75491 | -69.08769 | 35053 ft | 478 kts | 281° |
| 2026-05-07 16:57 | 17.76038 | -69.15745 | 35061 ft | 478 kts | 281° |
| 2026-05-07 16:57 | 17.76571 | -69.22707 | 35055 ft | 477 kts | 280° |
| 2026-05-07 16:58 | 17.76979 | -69.29620 | 35053 ft | 478 kts | 279° |
| 2026-05-07 16:58 | 17.77443 | -69.36569 | 35053 ft | 477 kts | 280° |
| 2026-05-07 16:59 | 17.77990 | -69.43511 | 35054 ft | 477 kts | 281° |
| 2026-05-07 16:59 | 17.78534 | -69.50457 | 35054 ft | 477 kts | 281° |
| 2026-05-07 17:00 | 17.79095 | -69.57341 | 35056 ft | 476 kts | 281° |
| 2026-05-07 17:00 | 17.79642 | -69.64286 | 35057 ft | 476 kts | 281° |
| 2026-05-07 17:01 | 17.80193 | -69.71173 | 35060 ft | 475 kts | 281° |
| 2026-05-07 17:01 | 17.80738 | -69.78102 | 35059 ft | 475 kts | 281° |
| 2026-05-07 17:02 | 17.81281 | -69.84991 | 35060 ft | 476 kts | 281° |
| 2026-05-07 17:02 | 17.81823 | -69.91917 | 35055 ft | 475 kts | 281° |
| 2026-05-07 17:03 | 17.82330 | -69.98834 | 35056 ft | 476 kts | 279° |
| 2026-05-07 17:03 | 17.82735 | -70.05759 | 35056 ft | 476 kts | 279° |
| 2026-05-07 17:04 | 17.83200 | -70.12673 | 35054 ft | 476 kts | 279° |
| 2026-05-07 17:04 | 17.83629 | -70.19626 | 35054 ft | 476 kts | 279° |
| 2026-05-07 17:05 | 17.84070 | -70.26511 | 35052 ft | 475 kts | 279° |
| 2026-05-07 17:05 | 17.84502 | -70.33434 | 35052 ft | 475 kts | 279° |
| 2026-05-07 17:06 | 17.84946 | -70.40380 | 35055 ft | 475 kts | 280° |
| 2026-05-07 17:06 | 17.85447 | -70.47273 | 35055 ft | 475 kts | 280° |
| 2026-05-07 17:07 | 17.85913 | -70.54182 | 35048 ft | 475 kts | 279° |
| 2026-05-07 17:07 | 17.86393 | -70.61090 | 35054 ft | 474 kts | 279° |
| 2026-05-07 17:08 | 17.86863 | -70.67976 | 35049 ft | 474 kts | 279° |
| 2026-05-07 17:08 | 17.87330 | -70.74829 | 35052 ft | 474 kts | 279° |
| 2026-05-07 17:09 | 17.87799 | -70.81744 | 35054 ft | 474 kts | 279° |
| 2026-05-07 17:09 | 17.88265 | -70.88675 | 35046 ft | 474 kts | 279° |
| 2026-05-07 17:10 | 17.88726 | -70.95550 | 35074 ft | 473 kts | 279° |
| 2026-05-07 17:10 | 17.89185 | -71.02428 | 35075 ft | 473 kts | 279° |
| 2026-05-07 17:11 | 17.89641 | -71.09310 | 35075 ft | 473 kts | 279° |
| 2026-05-07 17:11 | 17.90098 | -71.16230 | 35066 ft | 473 kts | 279° |
| 2026-05-07 17:12 | 17.90548 | -71.23097 | 35061 ft | 473 kts | 279° |
| 2026-05-07 17:12 | 17.90998 | -71.29989 | 35067 ft | 474 kts | 279° |
| 2026-05-07 17:13 | 17.91445 | -71.36884 | 35068 ft | 474 kts | 279° |
| 2026-05-07 17:13 | 17.91888 | -71.43755 | 35065 ft | 473 kts | 279° |
| 2026-05-07 17:14 | 17.92331 | -71.50643 | 35065 ft | 473 kts | 279° |
| 2026-05-07 17:14 | 17.92770 | -71.57519 | 35045 ft | 473 kts | 279° |
| 2026-05-07 17:15 | 17.93199 | -71.64445 | 35047 ft | 474 kts | 277° |
| 2026-05-07 17:15 | 17.93066 | -71.71386 | 35044 ft | 477 kts | 273° |
| 2026-05-07 17:16 | 17.92901 | -71.78363 | 35050 ft | 478 kts | 274° |
| 2026-05-07 17:16 | 17.92723 | -71.85364 | 35050 ft | 478 kts | 273° |
| 2026-05-07 17:17 | 17.92549 | -71.92308 | 35040 ft | 478 kts | 273° |
| 2026-05-07 17:17 | 17.92355 | -71.99328 | 35036 ft | 479 kts | 272° |
| 2026-05-07 17:18 | 17.92125 | -72.06296 | 35033 ft | 479 kts | 273° |
| 2026-05-07 17:18 | 17.91917 | -72.13268 | 35035 ft | 479 kts | 273° |
| 2026-05-07 17:19 | 17.91727 | -72.19106 | 35036 ft | 479 kts | 273° |
| 2026-05-07 17:19 | 17.91507 | -72.26075 | 35029 ft | 479 kts | 272° |
| 2026-05-07 17:20 | 17.91281 | -72.33068 | 35042 ft | 480 kts | 272° |
| 2026-05-07 17:20 | 17.91051 | -72.40110 | 35042 ft | 480 kts | 272° |
| 2026-05-07 17:21 | 17.90822 | -72.47072 | 35040 ft | 480 kts | 272° |
| 2026-05-07 17:21 | 17.90587 | -72.54104 | 35040 ft | 480 kts | 272° |
| 2026-05-07 17:22 | 17.90351 | -72.61114 | 35031 ft | 480 kts | 272° |
| 2026-05-07 17:22 | 17.90113 | -72.68103 | 35037 ft | 480 kts | 272° |
| 2026-05-07 17:23 | 17.89872 | -72.75108 | 35038 ft | 480 kts | 272° |
| 2026-05-07 17:23 | 17.89630 | -72.82089 | 35038 ft | 480 kts | 272° |
| 2026-05-07 17:24 | 17.89415 | -72.89117 | 35039 ft | 480 kts | 272° |
| 2026-05-07 17:24 | 17.89189 | -72.96097 | 35031 ft | 480 kts | 272° |
| 2026-05-07 17:25 | 17.88962 | -73.03127 | 35036 ft | 480 kts | 272° |
| 2026-05-07 17:25 | 17.88733 | -73.10153 | 35035 ft | 481 kts | 271° |
| 2026-05-07 17:26 | 17.88501 | -73.17162 | 35040 ft | 481 kts | 271° |
| 2026-05-07 17:26 | 17.88267 | -73.24163 | 35041 ft | 481 kts | 271° |
| 2026-05-07 17:27 | 17.88031 | -73.31165 | 35036 ft | 481 kts | 271° |
| 2026-05-07 17:27 | 17.87788 | -73.38147 | 35037 ft | 481 kts | 271° |
| 2026-05-07 17:28 | 17.87534 | -73.45198 | 35033 ft | 481 kts | 271° |
| 2026-05-07 17:28 | 17.87281 | -73.52202 | 35036 ft | 481 kts | 271° |
| 2026-05-07 17:29 | 17.87029 | -73.59224 | 35037 ft | 482 kts | 271° |
| 2026-05-07 17:29 | 17.86770 | -73.66238 | 35029 ft | 481 kts | 271° |
| 2026-05-07 17:30 | 17.86510 | -73.73275 | 35036 ft | 482 kts | 271° |
| 2026-05-07 17:30 | 17.86248 | -73.80281 | 35036 ft | 482 kts | 271° |
| 2026-05-07 17:31 | 17.85982 | -73.87310 | 35037 ft | 479 kts | 271° |
| 2026-05-07 17:31 | 17.85717 | -73.94274 | 35035 ft | 479 kts | 271° |
| 2026-05-07 17:32 | 17.85449 | -74.01249 | 35031 ft | 479 kts | 270° |
| 2026-05-07 17:32 | 17.85177 | -74.08252 | 35037 ft | 479 kts | 270° |
| 2026-05-07 17:33 | 17.84952 | -74.15213 | 35036 ft | 477 kts | 272° |
| 2026-05-07 17:33 | 17.84829 | -74.22166 | 35033 ft | 474 kts | 271° |
| 2026-05-07 17:34 | 17.84717 | -74.29038 | 35031 ft | 469 kts | 272° |
| 2026-05-07 17:34 | 17.84607 | -74.35840 | 35028 ft | 466 kts | 272° |
| 2026-05-07 17:35 | 17.84544 | -74.39276 | 34821 ft | 465 kts | 271° |
| 2026-05-07 17:35 | 17.84487 | -74.42622 | 34588 ft | 460 kts | 272° |
| 2026-05-07 17:35 | 17.84432 | -74.45994 | 34358 ft | 459 kts | 272° |
| 2026-05-07 17:35 | 17.84375 | -74.49309 | 34131 ft | 459 kts | 271° |
| 2026-05-07 17:36 | 17.84314 | -74.52677 | 33844 ft | 459 kts | 271° |
| 2026-05-07 17:36 | 17.84253 | -74.56028 | 33498 ft | 458 kts | 271° |
| 2026-05-07 17:36 | 17.84193 | -74.59322 | 33114 ft | 449 kts | 272° |
| 2026-05-07 17:36 | 17.84134 | -74.62585 | 32730 ft | 441 kts | 272° |
| 2026-05-07 17:37 | 17.84076 | -74.65757 | 32355 ft | 434 kts | 272° |
| 2026-05-07 17:37 | 17.84018 | -74.68902 | 31982 ft | 427 kts | 272° |
| 2026-05-07 17:37 | 17.83961 | -74.72006 | 31613 ft | 421 kts | 272° |
| 2026-05-07 17:37 | 17.83906 | -74.75031 | 31251 ft | 415 kts | 272° |
| 2026-05-07 17:38 | 17.83849 | -74.78065 | 30890 ft | 410 kts | 272° |
| 2026-05-07 17:38 | 17.83793 | -74.81020 | 30538 ft | 405 kts | 272° |
| 2026-05-07 17:38 | 17.83738 | -74.83957 | 30189 ft | 400 kts | 272° |
| 2026-05-07 17:38 | 17.83683 | -74.86845 | 29797 ft | 396 kts | 272° |
| 2026-05-07 17:39 | 17.83627 | -74.89727 | 29390 ft | 392 kts | 272° |
| 2026-05-07 17:39 | 17.83572 | -74.92568 | 28982 ft | 391 kts | 272° |
| 2026-05-07 17:39 | 17.83517 | -74.95409 | 28610 ft | 391 kts | 272° |
| 2026-05-07 17:39 | 17.83461 | -74.98278 | 28229 ft | 391 kts | 272° |
| 2026-05-07 17:40 | 17.83404 | -75.01113 | 27862 ft | 391 kts | 272° |
| 2026-05-07 17:40 | 17.83347 | -75.03991 | 27493 ft | 392 kts | 272° |
| 2026-05-07 17:40 | 17.83289 | -75.06869 | 27125 ft | 393 kts | 272° |
| 2026-05-07 17:40 | 17.83231 | -75.09724 | 26773 ft | 394 kts | 272° |
| 2026-05-07 17:41 | 17.83172 | -75.12616 | 26429 ft | 395 kts | 272° |
| 2026-05-07 17:41 | 17.83113 | -75.15484 | 26081 ft | 396 kts | 272° |
| 2026-05-07 17:41 | 17.83053 | -75.18381 | 25735 ft | 392 kts | 272° |
| 2026-05-07 17:41 | 17.82992 | -75.21207 | 25394 ft | 387 kts | 272° |
| 2026-05-07 17:42 | 17.82933 | -75.24018 | 25046 ft | 383 kts | 272° |
| 2026-05-07 17:42 | 17.82876 | -75.26785 | 24708 ft | 378 kts | 272° |
| 2026-05-07 17:42 | 17.82817 | -75.29533 | 24371 ft | 375 kts | 273° |
| 2026-05-07 17:42 | 17.82759 | -75.32251 | 24038 ft | 371 kts | 273° |
| 2026-05-07 17:43 | 17.82700 | -75.34964 | 23698 ft | 368 kts | 273° |
| 2026-05-07 17:43 | 17.82643 | -75.37641 | 23322 ft | 365 kts | 273° |
| 2026-05-07 17:43 | 17.82585 | -75.40286 | 22935 ft | 363 kts | 272° |
| 2026-05-07 17:43 | 17.82527 | -75.42930 | 22547 ft | 360 kts | 272° |
| 2026-05-07 17:44 | 17.82470 | -75.45523 | 22174 ft | 358 kts | 272° |
| 2026-05-07 17:44 | 17.82412 | -75.48123 | 21794 ft | 355 kts | 272° |
| 2026-05-07 17:44 | 17.82354 | -75.50728 | 21430 ft | 353 kts | 271° |
| 2026-05-07 17:44 | 17.82296 | -75.53291 | 21069 ft | 351 kts | 271° |
| 2026-05-07 17:45 | 17.82238 | -75.55854 | 20715 ft | 348 kts | 271° |
| 2026-05-07 17:45 | 17.82181 | -75.58363 | 20356 ft | 346 kts | 271° |
| 2026-05-07 17:45 | 17.82123 | -75.60895 | 20005 ft | 344 kts | 271° |
| 2026-05-07 17:45 | 17.82065 | -75.63404 | 19664 ft | 342 kts | 270° |
| 2026-05-07 17:46 | 17.82008 | -75.65888 | 19306 ft | 340 kts | 270° |
| 2026-05-07 17:46 | 17.81950 | -75.68379 | 18976 ft | 339 kts | 270° |
| 2026-05-07 17:46 | 17.81893 | -75.70811 | 18653 ft | 337 kts | 270° |
| 2026-05-07 17:46 | 17.81835 | -75.73281 | 18312 ft | 336 kts | 269° |
| 2026-05-07 17:47 | 17.81777 | -75.75733 | 17928 ft | 334 kts | 269° |
| 2026-05-07 17:47 | 17.81719 | -75.78167 | 17549 ft | 332 kts | 269° |
| 2026-05-07 17:47 | 17.81661 | -75.80589 | 17180 ft | 330 kts | 269° |
| 2026-05-07 17:47 | 17.81603 | -75.82977 | 16810 ft | 330 kts | 269° |
| 2026-05-07 17:48 | 17.81546 | -75.85363 | 16446 ft | 329 kts | 269° |
| 2026-05-07 17:48 | 17.81487 | -75.87783 | 16086 ft | 329 kts | 269° |
| 2026-05-07 17:48 | 17.81429 | -75.90196 | 15732 ft | 328 kts | 269° |
| 2026-05-07 17:48 | 17.81370 | -75.92562 | 15387 ft | 326 kts | 269° |
| 2026-05-07 17:49 | 17.81312 | -75.94922 | 15041 ft | 323 kts | 268° |
| 2026-05-07 17:49 | 17.81254 | -75.97283 | 14693 ft | 321 kts | 268° |
| 2026-05-07 17:49 | 17.81196 | -75.99620 | 14350 ft | 318 kts | 268° |
| 2026-05-07 17:49 | 17.81094 | -76.01904 | 14015 ft | 315 kts | 265° |
| 2026-05-07 17:50 | 17.80896 | -76.04193 | 13663 ft | 312 kts | 263° |
| 2026-05-07 17:50 | 17.80641 | -76.06461 | 13281 ft | 310 kts | 262° |
| 2026-05-07 17:50 | 17.80349 | -76.08682 | 12908 ft | 308 kts | 261° |
| 2026-05-07 17:50 | 17.80043 | -76.10907 | 12532 ft | 306 kts | 261° |
| 2026-05-07 17:51 | 17.79741 | -76.13088 | 12172 ft | 304 kts | 261° |
| 2026-05-07 17:51 | 17.79438 | -76.15279 | 11810 ft | 303 kts | 261° |
| 2026-05-07 17:51 | 17.79137 | -76.17471 | 11458 ft | 302 kts | 261° |
| 2026-05-07 17:51 | 17.78836 | -76.19664 | 11092 ft | 301 kts | 261° |
| 2026-05-07 17:52 | 17.78538 | -76.21811 | 10745 ft | 300 kts | 261° |
| 2026-05-07 17:52 | 17.78236 | -76.23979 | 10396 ft | 299 kts | 261° |
| 2026-05-07 17:52 | 17.77935 | -76.26134 | 10128 ft | 295 kts | 261° |
| 2026-05-07 17:52 | 17.77642 | -76.28236 | 9869 ft | 292 kts | 261° |
| 2026-05-07 17:53 | 17.77327 | -76.30334 | 9584 ft | 289 kts | 259° |
| 2026-05-07 17:53 | 17.76939 | -76.32394 | 9316 ft | 285 kts | 258° |
| 2026-05-07 17:53 | 17.76543 | -76.34390 | 9067 ft | 281 kts | 258° |
| 2026-05-07 17:53 | 17.76284 | -76.36425 | 8809 ft | 279 kts | 265° |
| 2026-05-07 17:54 | 17.76174 | -76.38462 | 8562 ft | 279 kts | 267° |
| 2026-05-07 17:54 | 17.76097 | -76.40501 | 8349 ft | 279 kts | 267° |
| 2026-05-07 17:54 | 17.76037 | -76.42520 | 8151 ft | 281 kts | 267° |
| 2026-05-07 17:54 | 17.75980 | -76.44580 | 7967 ft | 281 kts | 268° |
| 2026-05-07 17:55 | 17.75921 | -76.46625 | 7823 ft | 276 kts | 267° |
| 2026-05-07 17:55 | 17.75868 | -76.48644 | 7714 ft | 280 kts | 268° |
| 2026-05-07 17:55 | 17.75814 | -76.50683 | 7515 ft | 277 kts | 268° |
| 2026-05-07 17:55 | 17.75761 | -76.52699 | 7193 ft | 275 kts | 267° |
| 2026-05-07 17:56 | 17.75803 | -76.54744 | 7009 ft | 286 kts | 274° |
| 2026-05-07 17:56 | 17.76028 | -76.56786 | 6810 ft | 280 kts | 277° |
| 2026-05-07 17:56 | 17.76397 | -76.58815 | 6619 ft | 285 kts | 284° |
| 2026-05-07 17:56 | 17.76887 | -76.60795 | 6400 ft | 270 kts | 285° |
| 2026-05-07 17:57 | 17.77423 | -76.62611 | 6155 ft | 257 kts | 289° |
| 2026-05-07 17:57 | 17.77808 | -76.63800 | 6011 ft | 252 kts | 289° |
| 2026-05-07 17:57 | 17.78562 | -76.66068 | 5752 ft | 243 kts | 289° |
| 2026-05-07 17:57 | 17.79121 | -76.67723 | 5551 ft | 237 kts | 289° |
| 2026-05-07 17:58 | 17.79696 | -76.69334 | 5363 ft | 233 kts | 292° |
| 2026-05-07 17:58 | 17.80310 | -76.70858 | 5146 ft | 223 kts | 294° |
| 2026-05-07 17:58 | 17.80905 | -76.72318 | 4933 ft | 214 kts | 294° |
| 2026-05-07 17:58 | 17.81502 | -76.73741 | 4702 ft | 209 kts | 295° |
| 2026-05-07 17:59 | 17.82121 | -76.75113 | 4463 ft | 206 kts | 297° |
| 2026-05-07 17:59 | 17.82743 | -76.76445 | 4220 ft | 204 kts | 297° |
| 2026-05-07 17:59 | 17.83358 | -76.77777 | 4042 ft | 200 kts | 297° |
| 2026-05-07 17:59 | 17.83958 | -76.79084 | 3868 ft | 197 kts | 296° |
| 2026-05-07 18:00 | 17.84540 | -76.80361 | 3713 ft | 193 kts | 297° |
| 2026-05-07 18:00 | 17.85120 | -76.81636 | 3565 ft | 192 kts | 297° |
| 2026-05-07 18:00 | 17.85699 | -76.82905 | 3424 ft | 192 kts | 297° |
| 2026-05-07 18:00 | 17.86269 | -76.84163 | 3270 ft | 193 kts | 297° |
| 2026-05-07 18:01 | 17.86829 | -76.85411 | 3094 ft | 181 kts | 297° |
| 2026-05-07 18:01 | 17.87345 | -76.86584 | 2907 ft | 171 kts | 297° |
| 2026-05-07 18:01 | 17.87819 | -76.87693 | 2724 ft | 166 kts | 296° |
| 2026-05-07 18:01 | 17.88284 | -76.88786 | 2539 ft | 165 kts | 297° |
| 2026-05-07 18:02 | 17.89256 | -76.91028 | 2216 ft | 179 kts | 297° |
| 2026-05-07 18:02 | 17.89774 | -76.92213 | 2111 ft | 178 kts | 297° |
| 2026-05-07 18:02 | 17.90443 | -76.93221 | 2009 ft | 161 kts | 321° |
| 2026-05-07 18:03 | 17.91313 | -76.93804 | 2001 ft | 136 kts | 342° |
| 2026-05-07 18:03 | 17.92169 | -76.94001 | 2001 ft | 120 kts | 4° |
| 2026-05-07 18:03 | 17.93023 | -76.93909 | 2020 ft | 130 kts | 21° |
| 2026-05-07 18:03 | 17.93923 | -76.93637 | 2053 ft | 136 kts | 30° |
| 2026-05-07 18:04 | 17.94573 | -76.93446 | 2021 ft | 151 kts | 22° |
| 2026-05-07 18:04 | 17.95790 | -76.92951 | 2007 ft | 131 kts | 46° |
| 2026-05-07 18:04 | 17.96196 | -76.92505 | 1989 ft | 122 kts | 63° |
| 2026-05-07 18:04 | 17.96533 | -76.91719 | 2019 ft | 117 kts | 83° |
| 2026-05-07 18:05 | 17.96609 | -76.90854 | 2109 ft | 123 kts | 88° |
| 2026-05-07 18:05 | 17.96643 | -76.89921 | 2053 ft | 130 kts | 91° |
| 2026-05-07 18:05 | 17.96593 | -76.88983 | 2113 ft | 127 kts | 94° |
| 2026-05-07 18:05 | 17.96467 | -76.88087 | 2006 ft | 128 kts | 101° |
| 2026-05-07 18:06 | 17.96278 | -76.87163 | 1886 ft | 129 kts | 102° |
| 2026-05-07 18:06 | 17.96064 | -76.86231 | 1683 ft | 132 kts | 102° |
| 2026-05-07 18:06 | 17.95765 | -76.85312 | 1401 ft | 137 kts | 106° |
| 2026-05-07 18:06 | 17.95461 | -76.84359 | 1100 ft | 134 kts | 105° |
| 2026-05-07 18:07 | 17.95175 | -76.83456 | 860 ft | 130 kts | 105° |
| 2026-05-07 18:07 | 17.94945 | -76.82543 | 638 ft | 127 kts | 106° |
| 2026-05-07 18:07 | 17.94703 | -76.81678 | 348 ft | 120 kts | 110° |
| 2026-05-07 18:07 | 17.94405 | -76.80882 | 204 ft | 117 kts | 113° |
| 2026-05-07 18:08 | 17.94093 | -76.80095 | 66 ft | 116 kts | 112° |
| 2026-05-07 18:08 | 17.93798 | -76.79339 | 17 ft | 107 kts | 111° |
| 2026-05-07 18:08 | 17.93563 | -76.78748 | 16 ft | 63 kts | 111° |
| 2026-05-07 18:08 | 17.93450 | -76.78457 | 17 ft | 26 kts | 111° |
| 2026-05-07 18:09 | 17.93408 | -76.78297 | 20 ft | 20 kts | 100° |
| 2026-05-07 18:09 | 17.93407 | -76.78164 | 20 ft | 15 kts | 79° |
| 2026-05-07 18:09 | 17.93476 | -76.78135 | 19 ft | 14 kts | 333° |
| 2026-05-07 18:09 | 17.93571 | -76.78146 | 19 ft | 14 kts | 21° |
| 2026-05-07 18:10 | 17.93637 | -76.78110 | 19 ft | 4 kts | 57° |
| 2026-05-07 18:10 | 17.93651 | -76.78078 | 20 ft | 7 kts | 74° |
| 2026-05-07 18:10 | 17.93655 | -76.78042 | 19 ft | 3 kts | 92° |
| 2026-05-07 18:10 | 17.93654 | -76.78040 | 19 ft | 0 kts | 100° |